Terminal Aerodrome Forecast
Issued by NWS

Home | Current Version | Previous Version | Text Only | Print | Product List | Glossary On
Versions: 1 2 3 4 5 6 7 8 9 10 11 12 13 14 15 16 17 18 19 20 21 22 23 24 25 26 27 28 29 30 31 32 33 34 35 36
000
FTUS43 KLOT 281600 AAB
TAFORD
TAF AMD
KORD 281600Z 2816/2918 36014G20KT P6SM FEW030
     FM281700 02014G21KT P6SM SCT050
     FM282300 02010G15KT P6SM SKC
     FM290200 31006KT P6SM FEW060
     FM291500 33010KT P6SM SCT060=

USA.gov is the U.S. government's official web portal to all federal, state and local government web resources and services.